Weir, Texas
Current Conditions -  °F | °C
As of 10:35 PM on Friday 24 Oct 2014 (Local Time) from KGTU Reporting Station
Clear Clear  
Wind Chill: 72°   Ceiling: Unl
Heat Index: 72°   Visibility: 10mi
Dew Point: 59°   Wind: 5mph
Humidity: 64%   Direction: 170°S
Pressure: 30.14"   Gusts: NA
Location:  30.67°N, 97.58°W
Report Text: KGTU 250335Z 17004KT 10SM CLR 22/15 A3014 RMK AO1
Loading
Personal Weather Stations






























Interactive Weather Map
Tropical Storm Tracking
New forecast layout! Learn more

10-Day Weather Forecast

Advertisements
Track Severe Weather on mobile